Airfield :
LOGIN :

Register | Disclaimer

   EN    FR    IT 

 










Legend :    VFR   Marginal VFR   IFR   Intensive IFR   Very Intensive IFR
Visi :
Ceiling :
>= 8 km
>= 3000ft
5 to 8 km
1000 to 3000 ft
1500m to 5 km
500 to 1000 ft
800 to 1500m
200 to 500 ft
< 800m
< 200 ft
Symbols :   Thunderstorms  Fog  Heavy snow  Heavy precipitations  Wind > 20 kt
SIGMETs :     Misc.  Thunderstorms  Icing  Turbulence  Mountain Waves  Volcanic Ashes






- Airport Elevation : 1910 ft
- IATA code : RDZ


LFCR - Rodez

CURRENT METAR :
  • 130530Z AUTO 27025KT 4900 -RA BR BKN008/// OVC012/// ///TCU 10/10 Q0990 TEMPO 30030G50KT 1500 +SHRA SCT012CB

EXPIRED METARs :
  • 130500Z AUTO 27025G40KT 8000 -RADZ BKN007/// OVC012/// ///TCU 10/10 Q0990
  • 130430Z AUTO 27030G45KT 8000 -RA BKN008/// OVC013/// ///TCU 10/09 Q0991
  • 130400Z AUTO 26026KT 6000 OVC008 10/09 Q0991
  • 130330Z AUTO 24016KT 6000 -RA OVC007/// ///TCU 09/09 Q0991
  • 130300Z AUTO 24017KT 6000 DZ BKN007 OVC012 09/09 Q0993

TAF TAF LFCR
Valid from the 13 at 06:00 until the 14 at 06:00 UTC


130500Z 1306/1406 29025G40KT 9999 BKN009 BKN013
TEMPO 1306/1316 3000 SHRA BKN006 SCT015TCU
PROB40
TEMPO 1306/1309 30030G50KT 1500 +SHRA SCT012CB
BECMG 1316/1318 30012KT 4000 -RA BKN007
TEMPO 1319/1403 27018G30KT 2000 RA BKN003



MET'MAP, your aeronautical weather chart ! - Copyright ORBIFLY December 2007 - Disclaimer

ORBIFLY MET'MAP TEAM :

Programming & Development : Alexandra Zaïnal
Concept & original design : Baudouin d'Aumeries
Assistance for programming : Marc-Olivier Méhu
Technical & hardware support : Manuel Goepfert

Contact : metmap@orbifly.com




SOURCES & CREDITS :

   NOAA